Time;durP1;ratioP1;P1;durP2;ratioP2;P2;SDS_P1;SDS_P2;PMS_P1;PMS_P2;Temp;Humidity;BMP_temperature;BMP_pressure;BME280_temperature;BME280_humidity;BME280_pressure;Samples;Min_cycle;Max_cycle;Signal;HPM_P1;HPM_P2
2023/02/16 00:00:55;;;;;;;;;;;;;;;7.00;85.70;102292.34;10455472;28;19974;-75
2023/02/16 00:05:58;;;;;;;;;;;;;;;7.05;85.79;102292.28;10455798;28;20364;-74
2023/02/16 00:16:22;;;;;;;;;;;;;;;6.96;86.42;102289.84;10456456;28;19925;-74
2023/02/16 00:21:24;;;;;;;;;;;;;;;6.91;86.50;102289.94;10444821;28;20265;-74
2023/02/16 00:26:27;;;;;;;;;;;;;;;6.88;87.13;102287.38;10446076;28;19932;-75
2023/02/16 00:31:32;;;;;;;;;;;;;;;6.77;87.05;102279.75;10463120;28;19924;-74
2023/02/16 00:36:34;;;;;;;;;;;;;;;6.73;87.20;102285.06;10447736;28;19974;-74
2023/02/16 00:41:52;;;;;;;;;;;;;;;6.67;88.30;102278.19;10464218;28;20264;-74
2023/02/16 00:46:55;;;;;;;;;;;;;;;6.75;88.46;102275.47;10463928;28;19932;-74
2023/02/16 00:51:57;;;;;;;;;;;;;;;6.58;88.77;102276.63;10463813;28;19925;-75
2023/02/16 00:56:59;;;;;;;;;;;;;;;6.57;89.59;102279.25;10445071;28;19925;-74
2023/02/16 01:02:01;;;;;;;;;;;;;;;6.58;89.08;102275.78;10464126;28;19931;-74
2023/02/16 01:12:31;;;;;;;;;;;;;;;6.50;89.37;102274.13;10448021;28;19925;-74
2023/02/16 01:17:33;;;;;;;;;;;;;;;6.52;89.22;102268.91;10444223;28;20322;-74
2023/02/16 01:22:35;;;;;;;;;;;;;;;6.46;88.90;102263.81;10463286;28;19933;-74
2023/02/16 01:27:38;;;;;;;;;;;;;;;6.41;88.70;102265.66;10462153;28;19925;-74
2023/02/16 01:32:40;;;;;;;;;;;;;;;6.53;88.69;102265.44;10461851;28;19925;-74
2023/02/16 01:37:42;;;;;;;;;;;;;;;6.42;89.54;102259.53;10461300;28;19925;-74
2023/02/16 01:42:50;;;;;;;;;;;;;;;6.26;89.65;102254.59;10460975;28;19925;-74
2023/02/16 01:47:53;;;;;;;;;;;;;;;6.24;89.44;102258.97;10444753;28;19924;-74
2023/02/16 01:52:57;;;;;;;;;;;;;;;6.44;88.56;102252.56;10460712;28;19928;-74
2023/02/16 01:58:07;;;;;;;;;;;;;;;6.28;88.82;102232.00;10460032;28;20273;-74
2023/02/16 02:08:33;;;;;;;;;;;;;;;6.26;89.43;102215.56;10459424;28;19925;-74
2023/02/16 02:13:39;;;;;;;;;;;;;;;6.34;88.40;102207.66;10443481;28;19925;-74
2023/02/16 02:18:43;;;;;;;;;;;;;;;6.29;88.79;102231.13;10460117;28;20475;-74
2023/02/16 02:24:04;;;;;;;;;;;;;;;6.17;89.38;102227.88;10442627;28;19928;-74
2023/02/16 02:29:06;;;;;;;;;;;;;;;6.10;89.83;102212.38;10459795;28;20364;-74
2023/02/16 02:34:16;;;;;;;;;;;;;;;6.07;89.98;102206.34;10441841;28;19924;-74
2023/02/16 02:39:32;;;;;;;;;;;;;;;6.14;89.98;102210.59;10440339;28;19929;-74
2023/02/16 02:44:48;;;;;;;;;;;;;;;6.15;89.87;102201.88;10441823;28;19924;-74
2023/02/16 02:49:51;;;;;;;;;;;;;;;6.05;89.54;102206.41;10442275;28;19924;-74
2023/02/16 03:00:40;;;;;;;;;;;;;;;6.05;90.63;102195.13;10457802;28;19925;-74
2023/02/16 03:05:53;;;;;;;;;;;;;;;6.02;90.83;102193.44;10456923;28;19939;-74
2023/02/16 03:16:24;;;;;;;;;;;;;;;6.03;90.55;102182.13;10457609;28;20398;-74
2023/02/16 03:32:10;;;;;;;;;;;;;;;6.11;90.02;102182.88;10456546;28;20390;-74
2023/02/16 03:37:12;;;;;;;;;;;;;;;6.17;89.81;102184.53;10455973;28;19924;-74
2023/02/16 03:42:15;;;;;;;;;;;;;;;6.11;90.36;102167.28;10456825;28;19951;-74
2023/02/16 03:47:17;;;;;;;;;;;;;;;6.16;89.93;102182.81;10457168;28;20372;-74
2023/02/16 03:52:19;;;;;;;;;;;;;;;5.95;91.11;102181.38;10455542;28;19924;-74
2023/02/16 03:57:21;;;;;;;;;;;;;;;5.92;90.74;102169.28;10456768;28;20429;-74
2023/02/16 04:02:24;;;;;;;;;;;;;;;5.66;91.52;102161.88;10456847;28;20269;-74
2023/02/16 04:07:26;;;;;;;;;;;;;;;5.88;91.82;102177.16;10438605;28;19928;-74
2023/02/16 04:12:36;;;;;;;;;;;;;;;5.84;92.27;102178.09;10438837;28;19925;-74
2023/02/16 04:17:38;;;;;;;;;;;;;;;5.93;92.06;102176.22;10455811;28;20380;-74
2023/02/16 04:22:41;;;;;;;;;;;;;;;5.95;91.19;102176.16;10438840;28;20300;-74
2023/02/16 04:27:43;;;;;;;;;;;;;;;6.04;90.88;102193.41;10456238;28;20368;-74
2023/02/16 04:32:46;;;;;;;;;;;;;;;5.98;91.36;102198.72;10437773;28;19933;-74
2023/02/16 04:37:48;;;;;;;;;;;;;;;6.31;90.10;102200.75;10456605;28;19924;-74
2023/02/16 04:42:50;;;;;;;;;;;;;;;6.19;90.25;102190.56;10455590;28;19925;-74
2023/02/16 04:47:53;;;;;;;;;;;;;;;6.15;90.31;102191.47;10455855;28;19925;-74
2023/02/16 04:52:55;;;;;;;;;;;;;;;6.11;89.96;102184.63;10454979;28;19932;-74
2023/02/16 04:57:57;;;;;;;;;;;;;;;6.04;91.05;102196.88;10456233;28;19925;-74
2023/02/16 05:03:00;;;;;;;;;;;;;;;6.09;90.73;102176.84;10456373;28;19925;-74
2023/02/16 05:08:02;;;;;;;;;;;;;;;6.14;90.30;102169.81;10462304;28;19925;-74
2023/02/16 05:18:25;;;;;;;;;;;;;;;6.11;91.03;102175.06;10462836;28;19947;-74
2023/02/16 05:23:27;;;;;;;;;;;;;;;5.97;91.94;102179.66;10462689;28;19928;-74
2023/02/16 05:28:29;;;;;;;;;;;;;;;6.26;90.60;102186.97;10462159;28;19928;-74
2023/02/16 05:33:32;;;;;;;;;;;;;;;6.13;91.56;102173.28;10460952;28;20396;-74
2023/02/16 05:38:34;;;;;;;;;;;;;;;6.24;92.19;102175.75;10462658;28;19925;-74
2023/02/16 05:43:36;;;;;;;;;;;;;;;5.94;93.02;102179.66;10489435;22;19924;-68
2023/02/16 05:48:38;;;;;;;;;;;;;;;6.04;92.40;102168.28;10502241;28;20371;-68
2023/02/16 05:53:41;;;;;;;;;;;;;;;6.12;92.54;102182.00;10502986;28;19925;-68
2023/02/16 05:58:43;;;;;;;;;;;;;;;6.00;93.46;102170.94;10501942;28;20272;-68
2023/02/16 06:03:45;;;;;;;;;;;;;;;5.92;93.26;102177.09;10483631;28;20337;-68
2023/02/16 06:08:47;;;;;;;;;;;;;;;5.95;94.34;102176.16;10501051;28;19924;-68
2023/02/16 06:13:50;;;;;;;;;;;;;;;6.14;93.45;102154.22;10502755;28;19924;-68
2023/02/16 06:18:52;;;;;;;;;;;;;;;6.12;92.37;102162.94;10501393;28;19924;-68
2023/02/16 06:23:55;;;;;;;;;;;;;;;6.12;93.47;102158.59;10483731;28;19925;-68
2023/02/16 06:28:57;;;;;;;;;;;;;;;6.20;93.06;102137.66;10483722;28;19947;-69
2023/02/16 06:34:02;;;;;;;;;;;;;;;6.02;94.42;102151.84;10483276;28;19932;-69
2023/02/16 06:39:04;;;;;;;;;;;;;;;6.16;93.73;102155.94;10501665;28;20015;-68
2023/02/16 06:44:08;;;;;;;;;;;;;;;6.15;94.00;102183.69;10499678;28;19924;-68
2023/02/16 06:49:11;;;;;;;;;;;;;;;6.04;95.85;102183.88;10483564;28;19931;-68
2023/02/16 06:54:14;;;;;;;;;;;;;;;5.94;95.99;102187.47;10482661;28;20301;-68
2023/02/16 06:59:17;;;;;;;;;;;;;;;6.09;94.74;102173.41;10482589;28;19932;-68
2023/02/16 07:04:19;;;;;;;;;;;;;;;6.17;95.04;102179.34;10499130;28;19924;-68
2023/02/16 07:09:21;;;;;;;;;;;;;;;6.32;94.65;102191.19;10500486;28;19931;-68
2023/02/16 07:14:23;;;;;;;;;;;;;;;6.01;94.54;102196.91;10499500;28;20303;-68
2023/02/16 07:19:26;;;;;;;;;;;;;;;6.07;96.10;102198.53;10498582;28;19974;-68
2023/02/16 07:24:28;;;;;;;;;;;;;;;6.13;94.95;102188.91;10497143;28;19924;-69
2023/02/16 07:29:30;;;;;;;;;;;;;;;6.21;94.60;102186.19;10498447;28;19925;-68
2023/02/16 07:34:32;;;;;;;;;;;;;;;6.10;95.50;102188.09;10498924;28;20374;-69
2023/02/16 07:39:34;;;;;;;;;;;;;;;6.29;94.90;102188.66;10497786;28;19925;-68
2023/02/16 07:44:37;;;;;;;;;;;;;;;6.36;94.41;102205.03;10498256;28;19924;-68
2023/02/16 07:49:39;;;;;;;;;;;;;;;6.31;93.83;102198.16;10499287;28;19974;-68
2023/02/16 07:54:41;;;;;;;;;;;;;;;6.41;93.49;102188.44;10498403;28;19925;-68
2023/02/16 07:59:43;;;;;;;;;;;;;;;6.76;93.57;102189.56;10497755;28;19925;-69
2023/02/16 08:04:46;;;;;;;;;;;;;;;6.95;90.56;102200.44;10498288;28;19932;-69
2023/02/16 08:09:48;;;;;;;;;;;;;;;6.94;91.79;102216.09;10497009;28;20366;-68
2023/02/16 08:14:50;;;;;;;;;;;;;;;6.94;90.87;102216.94;10498693;28;19931;-68
2023/02/16 08:19:53;;;;;;;;;;;;;;;6.98;91.80;102220.38;10498653;28;19925;-69
2023/02/16 08:24:55;;;;;;;;;;;;;;;7.10;90.75;102232.31;10495389;28;19952;-68
2023/02/16 08:29:57;;;;;;;;;;;;;;;7.17;90.98;102228.69;10464300;28;19951;-69
2023/02/16 08:35:00;;;;;;;;;;;;;;;7.12;91.83;102238.34;10498241;28;20003;-69
2023/02/16 08:40:04;;;;;;;;;;;;;;;7.07;92.06;102239.25;10500714;28;19932;-68
2023/02/16 08:45:06;;;;;;;;;;;;;;;7.27;91.25;102238.00;10486995;28;19935;-68
2023/02/16 08:50:10;;;;;;;;;;;;;;;7.09;91.97;102239.22;10504238;28;19931;-68
2023/02/16 08:55:12;;;;;;;;;;;;;;;7.37;91.68;102236.94;10505076;28;19931;-68
2023/02/16 09:00:33;;;;;;;;;;;;;;;7.29;91.88;102233.63;10509703;28;19924;-68
2023/02/16 09:05:35;;;;;;;;;;;;;;;7.37;91.09;102225.66;10502184;28;19925;-68
2023/02/16 09:10:37;;;;;;;;;;;;;;;7.48;92.21;102249.75;10503620;28;20330;-68
2023/02/16 09:15:41;;;;;;;;;;;;;;;7.71;89.86;102235.34;10504189;28;19924;-68
2023/02/16 09:20:44;;;;;;;;;;;;;;;7.42;90.73;102236.84;10504432;28;19970;-68
2023/02/16 09:25:48;;;;;;;;;;;;;;;7.49;91.04;102248.00;10505574;28;19975;-68
2023/02/16 09:30:50;;;;;;;;;;;;;;;7.47;90.83;102252.38;10504429;28;20359;-68
2023/02/16 09:35:52;;;;;;;;;;;;;;;7.50;90.68;102267.94;10504463;28;19975;-68
2023/02/16 09:40:55;;;;;;;;;;;;;;;7.58;91.06;102253.00;10504085;28;19924;-68
2023/02/16 09:45:57;;;;;;;;;;;;;;;7.84;89.71;102259.41;10502067;28;19924;-68
2023/02/16 09:51:00;;;;;;;;;;;;;;;7.75;89.58;102255.22;10502502;28;19925;-68
2023/02/16 09:56:22;;;;;;;;;;;;;;;7.78;89.79;102255.16;10503582;28;19969;-68
2023/02/16 10:01:43;;;;;;;;;;;;;;;8.13;89.12;102250.91;10502413;28;19924;-68
2023/02/16 10:06:57;;;;;;;;;;;;;;;8.23;87.82;102246.31;10503815;28;19929;-68
2023/02/16 10:11:59;;;;;;;;;;;;;;;7.89;90.34;102245.34;10502229;28;20438;-68
2023/02/16 10:17:05;;;;;;;;;;;;;;;8.31;90.50;102241.78;10503279;28;19978;-68
2023/02/16 10:22:11;;;;;;;;;;;;;;;8.33;91.41;102227.78;10503093;28;20367;-68
2023/02/16 10:27:14;;;;;;;;;;;;;;;8.25;93.52;102237.53;10503053;28;20356;-68
2023/02/16 10:32:28;;;;;;;;;;;;;;;8.47;92.29;102224.88;10500904;28;20077;-69
2023/02/16 10:37:30;;;;;;;;;;;;;;;7.92;100.00;102234.88;10499362;28;19996;-68
2023/02/16 10:42:33;;;;;;;;;;;;;;;8.33;96.50;102246.03;10501450;28;19932;-68
2023/02/16 10:47:39;;;;;;;;;;;;;;;8.16;99.75;102251.69;10501644;28;20397;-68
2023/02/16 10:52:41;;;;;;;;;;;;;;;8.10;100.00;102261.41;10484343;28;19924;-67
2023/02/16 10:57:48;;;;;;;;;;;;;;;8.17;100.00;102266.44;10496215;28;19933;-68
2023/02/16 11:02:51;;;;;;;;;;;;;;;8.37;100.00;102265.09;10466337;28;19924;-67
2023/02/16 11:07:55;;;;;;;;;;;;;;;8.03;100.00;102267.66;10497569;28;19932;-67
2023/02/16 11:12:57;;;;;;;;;;;;;;;8.31;100.00;102271.31;10501443;28;19929;-67
2023/02/16 11:18:03;;;;;;;;;;;;;;;7.75;100.00;102266.53;10481781;28;19970;-67
2023/02/16 11:23:22;;;;;;;;;;;;;;;7.70;100.00;102237.09;10460026;28;19924;-67
2023/02/16 11:28:30;;;;;;;;;;;;;;;7.81;100.00;102245.53;10458709;28;19925;-68
2023/02/16 11:33:34;;;;;;;;;;;;;;;7.77;100.00;102251.72;10447420;28;19931;-68
2023/02/16 11:38:36;;;;;;;;;;;;;;;7.87;100.00;102260.19;10523260;28;19961;-68
2023/02/16 11:43:38;;;;;;;;;;;;;;;8.00;100.00;102261.63;10517682;28;19943;-67
2023/02/16 11:48:40;;;;;;;;;;;;;;;7.84;100.00;102254.19;10480983;28;19924;-68
2023/02/16 11:53:43;;;;;;;;;;;;;;;7.76;100.00;102244.78;10480789;28;19928;-68
2023/02/16 11:58:49;;;;;;;;;;;;;;;7.51;100.00;102239.25;10480589;28;19931;-67
2023/02/16 12:03:51;;;;;;;;;;;;;;;7.92;100.00;102245.28;10439890;28;19925;-68
2023/02/16 12:09:16;;;;;;;;;;;;;;;8.15;100.00;102242.16;10456843;28;19932;-68
2023/02/16 12:14:23;;;;;;;;;;;;;;;8.08;100.00;102218.84;10470541;28;19978;-68
2023/02/16 12:19:25;;;;;;;;;;;;;;;8.15;100.00;102213.47;10489926;28;19931;-68
2023/02/16 12:24:40;;;;;;;;;;;;;;;8.42;100.00;102207.56;10506710;28;19928;-68
2023/02/16 12:29:52;;;;;;;;;;;;;;;9.06;100.00;102200.63;10488132;28;19924;-68
2023/02/16 12:35:11;;;;;;;;;;;;;;;8.47;100.00;102190.94;10505994;28;19924;-69
2023/02/16 12:40:32;;;;;;;;;;;;;;;8.71;100.00;102178.13;10464019;28;20326;-69
2023/02/16 12:45:35;;;;;;;;;;;;;;;9.09;100.00;102165.72;10464404;28;20421;-68
2023/02/16 12:50:39;;;;;;;;;;;;;;;9.45;100.00;102155.91;10463226;28;20292;-68
2023/02/16 12:55:45;;;;;;;;;;;;;;;9.56;100.00;102146.88;10463730;28;19970;-68
2023/02/16 13:00:49;;;;;;;;;;;;;;;9.38;100.00;102138.72;10463187;28;19925;-69
2023/02/16 13:05:55;;;;;;;;;;;;;;;12.06;95.05;102115.00;10464302;28;19928;-69
2023/02/16 13:11:19;;;;;;;;;;;;;;;12.90;87.18;102112.19;10463699;28;19925;-69
2023/02/16 13:16:23;;;;;;;;;;;;;;;12.02;86.96;102101.16;10463208;28;20311;-69
2023/02/16 13:21:50;;;;;;;;;;;;;;;13.51;82.65;102097.94;10463738;28;19925;-69
2023/02/16 13:27:11;;;;;;;;;;;;;;;13.10;81.46;102077.09;10464156;28;19932;-69
2023/02/16 13:32:21;;;;;;;;;;;;;;;12.01;86.85;102061.88;10463689;28;20387;-69
2023/02/16 13:37:37;;;;;;;;;;;;;;;14.79;77.17;102075.53;10462333;28;20291;-69
2023/02/16 13:42:58;;;;;;;;;;;;;;;14.18;76.48;102075.22;10462223;28;19974;-69
2023/02/16 13:48:00;;;;;;;;;;;;;;;12.21;80.87;102069.72;10463835;28;19928;-69
2023/02/16 13:53:19;;;;;;;;;;;;;;;12.42;84.95;102065.28;10463063;28;19931;-69
2023/02/16 13:58:31;;;;;;;;;;;;;;;12.16;85.90;102058.56;10444888;28;19928;-69
2023/02/16 14:03:36;;;;;;;;;;;;;;;12.17;86.71;102052.41;10462417;28;19975;-69
2023/02/16 14:08:38;;;;;;;;;;;;;;;11.79;88.86;102046.16;10462990;28;19929;-69
2023/02/16 14:13:40;;;;;;;;;;;;;;;11.97;87.96;102031.41;10461396;28;19932;-69
2023/02/16 14:19:02;;;;;;;;;;;;;;;11.50;90.67;102012.38;10461904;28;19929;-69
2023/02/16 14:24:05;;;;;;;;;;;;;;;12.30;89.16;102015.09;10459730;28;19929;-69
2023/02/16 14:29:09;;;;;;;;;;;;;;;12.65;84.59;102008.22;10459889;28;19925;-67
2023/02/16 14:34:17;;;;;;;;;;;;;;;12.09;86.54;102020.38;10458933;28;19924;-66
2023/02/16 14:39:21;;;;;;;;;;;;;;;12.22;88.43;102011.03;10458289;28;19931;-67
2023/02/16 14:44:50;;;;;;;;;;;;;;;11.69;89.39;102009.81;10459215;28;20287;-69
2023/02/16 14:50:19;;;;;;;;;;;;;;;11.79;90.90;102002.41;10457502;28;19929;-69
2023/02/16 14:55:40;;;;;;;;;;;;;;;12.44;88.28;101987.28;10443892;28;20307;-69
2023/02/16 15:00:42;;;;;;;;;;;;;;;12.33;89.53;101986.06;10457913;28;19932;-69
2023/02/16 15:05:57;;;;;;;;;;;;;;;12.31;88.98;101988.75;10458819;28;20454;-70
2023/02/16 15:11:18;;;;;;;;;;;;;;;11.42;92.56;101993.47;10457659;28;20438;-69
2023/02/16 15:16:21;;;;;;;;;;;;;;;11.66;90.17;101988.94;10457216;28;19971;-69
2023/02/16 15:21:27;;;;;;;;;;;;;;;11.93;90.36;101993.09;10458243;28;19925;-69
2023/02/16 15:26:31;;;;;;;;;;;;;;;12.19;90.39;101981.44;10457599;28;19932;-69
2023/02/16 15:31:35;;;;;;;;;;;;;;;11.98;89.42;101976.22;10457945;28;20360;-70
2023/02/16 15:36:41;;;;;;;;;;;;;;;11.36;93.79;101971.91;10455863;28;21468;-70
2023/02/16 15:41:44;;;;;;;;;;;;;;;11.73;91.53;101962.44;10456445;28;20287;-69
2023/02/16 15:46:47;;;;;;;;;;;;;;;11.69;92.33;101965.19;10457342;28;19996;-69
2023/02/16 15:51:49;;;;;;;;;;;;;;;11.56;92.77;101974.53;10439956;28;19925;-69
2023/02/16 15:56:53;;;;;;;;;;;;;;;11.95;89.80;101967.63;10456565;28;19932;-69
2023/02/16 16:01:59;;;;;;;;;;;;;;;11.65;90.96;101962.78;10456513;28;19948;-69
2023/02/16 16:07:03;;;;;;;;;;;;;;;11.48;91.56;101958.25;10456484;28;19925;-70
2023/02/16 16:12:07;;;;;;;;;;;;;;;11.22;95.95;101960.22;10455606;28;19925;-69
2023/02/16 16:17:11;;;;;;;;;;;;;;;11.41;93.15;101962.91;10456066;28;19951;-69
2023/02/16 16:22:31;;;;;;;;;;;;;;;11.30;94.43;101955.50;10457363;28;19925;-69
2023/02/16 16:27:35;;;;;;;;;;;;;;;11.22;94.48;101951.50;10455389;28;20360;-69
2023/02/16 16:32:37;;;;;;;;;;;;;;;11.03;95.16;101951.38;10455162;28;20367;-69
2023/02/16 16:37:40;;;;;;;;;;;;;;;11.27;93.65;101947.75;10456244;28;20426;-69
2023/02/16 16:42:42;;;;;;;;;;;;;;;11.07;94.57;101947.75;10456492;28;19925;-69
2023/02/16 16:47:48;;;;;;;;;;;;;;;11.14;95.11;101946.56;10439096;28;19929;-69
2023/02/16 16:52:51;;;;;;;;;;;;;;;10.99;99.45;101949.81;10455367;28;19925;-69
2023/02/16 16:57:57;;;;;;;;;;;;;;;11.04;99.91;101955.72;10455277;28;19925;-69
2023/02/16 17:03:00;;;;;;;;;;;;;;;10.60;100.00;101957.44;10460941;28;19925;-69
2023/02/16 17:08:03;;;;;;;;;;;;;;;10.42;100.00;101973.84;10463440;28;20380;-69
2023/02/16 17:13:05;;;;;;;;;;;;;;;10.25;100.00;101977.06;10462671;28;19974;-69
2023/02/16 17:18:14;;;;;;;;;;;;;;;10.15;100.00;101980.94;10462477;28;19925;-69
2023/02/16 17:23:18;;;;;;;;;;;;;;;10.20;100.00;101976.38;10461791;28;19932;-69
2023/02/16 17:28:20;;;;;;;;;;;;;;;10.31;100.00;101970.78;10477228;28;20341;-69
2023/02/16 17:33:22;;;;;;;;;;;;;;;9.80;100.00;101978.69;10503276;28;20425;-69
2023/02/16 17:38:24;;;;;;;;;;;;;;;9.98;100.00;101973.72;10504282;28;19974;-69
2023/02/16 17:43:27;;;;;;;;;;;;;;;10.28;100.00;101965.66;10503849;28;19932;-69
2023/02/16 17:48:29;;;;;;;;;;;;;;;10.10;100.00;101961.94;10503989;28;19970;-69
2023/02/16 17:53:31;;;;;;;;;;;;;;;9.99;100.00;101963.19;10503820;28;19993;-69
2023/02/16 17:58:34;;;;;;;;;;;;;;;9.71;100.00;101970.31;10510892;22;19955;-71
2023/02/16 18:03:36;;;;;;;;;;;;;;;10.01;100.00;101950.91;10501729;28;20064;-71
2023/02/16 18:08:38;;;;;;;;;;;;;;;9.94;100.00;101956.44;10500255;28;20298;-71
2023/02/16 18:13:41;;;;;;;;;;;;;;;9.81;100.00;101945.53;10480181;28;19928;-71
2023/02/16 18:18:43;;;;;;;;;;;;;;;9.91;100.00;101946.91;10484434;28;19932;-71
2023/02/16 18:23:45;;;;;;;;;;;;;;;9.71;100.00;101938.94;10483338;28;20371;-71
2023/02/16 18:28:48;;;;;;;;;;;;;;;9.69;100.00;101943.38;10501881;28;19928;-71
2023/02/16 18:33:50;;;;;;;;;;;;;;;9.66;100.00;101932.09;10500703;28;19928;-71
2023/02/16 18:38:52;;;;;;;;;;;;;;;9.68;100.00;101939.88;10499083;28;19932;-71
2023/02/16 18:43:54;;;;;;;;;;;;;;;9.66;100.00;101939.94;10482379;28;19931;-71
2023/02/16 18:48:56;;;;;;;;;;;;;;;9.69;100.00;101931.16;10467341;28;19928;-71
2023/02/16 18:53:59;;;;;;;;;;;;;;;9.52;100.00;101936.97;10500715;28;19936;-71
2023/02/16 18:59:01;;;;;;;;;;;;;;;9.58;100.00;101941.13;10499129;28;19925;-71
2023/02/16 19:04:04;;;;;;;;;;;;;;;9.60;100.00;101949.75;10483218;28;19970;-71
2023/02/16 19:09:06;;;;;;;;;;;;;;;9.53;100.00;101961.34;10481508;28;19925;-71
2023/02/16 19:14:10;;;;;;;;;;;;;;;9.53;100.00;101959.59;10500504;28;19954;-71
2023/02/16 19:19:12;;;;;;;;;;;;;;;9.80;100.00;101963.00;10482722;28;19932;-71
2023/02/16 19:24:14;;;;;;;;;;;;;;;9.71;100.00;101965.94;10498795;28;19928;-71
2023/02/16 19:29:17;;;;;;;;;;;;;;;9.72;100.00;101945.88;10500021;28;20043;-71
2023/02/16 19:34:19;;;;;;;;;;;;;;;9.66;100.00;101960.84;10499162;28;19936;-72
2023/02/16 19:39:21;;;;;;;;;;;;;;;9.52;100.00;101975.34;10499581;28;19925;-71
2023/02/16 19:44:23;;;;;;;;;;;;;;;9.82;100.00;101968.19;10492388;28;19924;-71
2023/02/16 19:49:25;;;;;;;;;;;;;;;9.70;100.00;101973.81;10497591;28;20286;-71
2023/02/16 19:54:29;;;;;;;;;;;;;;;9.53;100.00;101964.84;10499329;28;19925;-71
2023/02/16 19:59:31;;;;;;;;;;;;;;;9.53;100.00;101971.78;10479111;28;19924;-71
2023/02/16 20:04:33;;;;;;;;;;;;;;;9.52;100.00;101952.66;10497789;28;19925;-71
2023/02/16 20:09:36;;;;;;;;;;;;;;;9.57;100.00;101952.50;10480168;28;20437;-71
2023/02/16 20:14:38;;;;;;;;;;;;;;;9.52;100.00;101965.72;10498854;28;20011;-71
2023/02/16 20:19:41;;;;;;;;;;;;;;;9.71;100.00;101947.63;10498732;28;19972;-71
2023/02/16 20:24:46;;;;;;;;;;;;;;;9.52;100.00;101959.66;10496410;28;19924;-71
2023/02/16 20:29:48;;;;;;;;;;;;;;;9.42;100.00;101953.88;10496090;28;19924;-72
2023/02/16 20:34:50;;;;;;;;;;;;;;;9.49;100.00;101963.22;10499105;28;19924;-71
2023/02/16 20:39:53;;;;;;;;;;;;;;;9.61;100.00;101959.31;10486521;28;19928;-71
2023/02/16 20:44:55;;;;;;;;;;;;;;;9.71;100.00;101933.72;10505610;28;19924;-71
2023/02/16 20:49:58;;;;;;;;;;;;;;;9.69;100.00;101931.16;10505485;28;20367;-71
2023/02/16 20:55:00;;;;;;;;;;;;;;;9.49;100.00;101947.53;10506066;28;19924;-71
2023/02/16 21:00:15;;;;;;;;;;;;;;;9.55;100.00;101946.44;10469766;28;20367;-71
2023/02/16 21:05:18;;;;;;;;;;;;;;;9.57;100.00;101944.66;10487301;28;19970;-71
2023/02/16 21:10:20;;;;;;;;;;;;;;;9.48;100.00;101930.13;10487822;28;19924;-71
2023/02/16 21:15:22;;;;;;;;;;;;;;;9.54;100.00;101943.00;10505232;28;19970;-71
2023/02/16 21:20:25;;;;;;;;;;;;;;;9.47;100.00;101931.88;10485298;28;19978;-71
2023/02/16 21:25:27;;;;;;;;;;;;;;;9.60;100.00;101932.31;10488934;28;19925;-71
2023/02/16 21:30:29;;;;;;;;;;;;;;;9.52;100.00;101934.34;10486940;28;19924;-71
2023/02/16 21:35:32;;;;;;;;;;;;;;;9.48;100.00;101931.00;10500391;28;19956;-71
2023/02/16 21:45:59;;;;;;;;;;;;;;;9.69;100.00;101920.69;10488311;28;20374;-71
2023/02/16 21:51:02;;;;;;;;;;;;;;;9.59;100.00;101914.06;10484382;28;19966;-71
2023/02/16 21:56:18;;;;;;;;;;;;;;;9.52;100.00;101923.06;10502877;28;19924;-71
2023/02/16 22:01:24;;;;;;;;;;;;;;;9.58;100.00;101922.81;10486915;28;19955;-71
2023/02/16 22:06:28;;;;;;;;;;;;;;;9.64;100.00;101902.53;10484742;28;19924;-71
2023/02/16 22:11:30;;;;;;;;;;;;;;;9.58;100.00;101910.63;10503189;28;19924;-72
2023/02/16 22:16:33;;;;;;;;;;;;;;;9.61;100.00;101907.03;10502261;28;19925;-71
2023/02/16 22:21:36;;;;;;;;;;;;;;;9.52;100.00;101908.22;10484254;28;19925;-71
2023/02/16 22:26:38;;;;;;;;;;;;;;;9.60;100.00;101919.25;10468434;28;20015;-71
2023/02/16 22:31:47;;;;;;;;;;;;;;;9.74;100.00;101882.13;10483879;28;19978;-71
2023/02/16 22:36:49;;;;;;;;;;;;;;;9.91;100.00;101888.53;10483677;28;19981;-71
2023/02/16 22:41:52;;;;;;;;;;;;;;;9.72;100.00;101897.03;10501829;28;19955;-71
2023/02/16 22:46:54;;;;;;;;;;;;;;;9.99;100.00;101900.41;10500751;28;19928;-71
2023/02/16 22:51:56;;;;;;;;;;;;;;;9.72;100.00;101898.81;10501446;28;19924;-71
2023/02/16 22:56:58;;;;;;;;;;;;;;;9.84;100.00;101904.44;10482593;28;20322;-71
2023/02/16 23:02:01;;;;;;;;;;;;;;;9.85;100.00;101905.28;10498750;28;19971;-71
2023/02/16 23:07:03;;;;;;;;;;;;;;;9.77;100.00;101913.41;10481957;28;19925;-71
2023/02/16 23:12:05;;;;;;;;;;;;;;;9.86;100.00;101918.28;10500032;28;19932;-71
2023/02/16 23:17:08;;;;;;;;;;;;;;;9.89;100.00;101903.44;10499721;28;19925;-71
2023/02/16 23:22:10;;;;;;;;;;;;;;;9.97;100.00;101896.13;10499376;28;19924;-71
2023/02/16 23:27:12;;;;;;;;;;;;;;;9.83;100.00;101894.91;10498508;28;19925;-71
2023/02/16 23:32:14;;;;;;;;;;;;;;;9.93;100.00;101895.38;10499214;28;19928;-71
2023/02/16 23:37:17;;;;;;;;;;;;;;;9.81;100.00;101906.31;10499061;28;19924;-71
2023/02/16 23:42:19;;;;;;;;;;;;;;;9.83;100.00;101891.41;10499581;28;19928;-71
2023/02/16 23:47:21;;;;;;;;;;;;;;;9.96;100.00;101894.44;10498613;28;19925;-71
2023/02/16 23:52:23;;;;;;;;;;;;;;;9.94;100.00;101883.19;10499385;28;19973;-71
2023/02/16 23:57:25;;;;;;;;;;;;;;;10.18;100.00;101884.84;10498017;28;19951;-71
